Time;durP1;ratioP1;P1;durP2;ratioP2;P2;SDS_P1;SDS_P2;PMS_P1;PMS_P2;Temp;Humidity;BMP_temperature;BMP_pressure;BME280_temperature;BME280_humidity;BME280_pressure;Samples;Min_cycle;Max_cycle;Signal;HPM_P1;HPM_P2
2023/06/03 00:02:02;;;;;;;;;;;;;;;;;;5075678;28;20026;-74
2023/06/03 00:04:29;;;;;;;;;;;;;;;;;;5063239;28;19947;-72
2023/06/03 00:06:56;;;;;;;;;;;;;;;;;;5072929;28;19931;-73
2023/06/03 00:09:25;;;;;;;;;;;;;;;;;;5052302;28;21353;-72
2023/06/03 00:11:52;;;;;;;;;;;;;;;;;;5066798;28;19974;-72
2023/06/03 00:14:19;;;;;;;;;;;;;;;;;;5083510;28;20387;-72
2023/06/03 00:16:46;;;;;;;;;;;;;;;;;;5088006;28;20022;-72
2023/06/03 00:19:14;;;;;;;;;;;;;;;;;;5071188;28;20007;-72
2023/06/03 00:21:41;;;;;;;;;;;;;;;;;;5079069;28;19924;-72
2023/06/03 00:24:08;;;;;;;;;;;;;;;;;;5078660;28;19964;-72
2023/06/03 00:26:35;;;;;;;;;;;;;;;;;;5077020;28;19964;-72
2023/06/03 00:29:02;;;;;;;;;;;;;;;;;;5061983;28;19924;-72
2023/06/03 00:31:29;;;;;;;;;;;;;;;;;;5070855;28;19931;-72
2023/06/03 00:33:56;;;;;;;;;;;;;;;;;;5072548;28;20007;-73
2023/06/03 00:36:23;;;;;;;;;;;;;;;;;;5069138;28;19994;-73
2023/06/03 00:38:50;;;;;;;;;;;;;;;;;;5069282;28;20012;-73
2023/06/03 00:41:18;;;;;;;;;;;;;;;;;;5071097;28;19964;-72
2023/06/03 00:43:45;;;;;;;;;;;;;;;;;;5072161;28;20295;-72
2023/06/03 00:46:12;;;;;;;;;;;;;;;;;;5073169;28;19925;-73
2023/06/03 00:48:39;;;;;;;;;;;;;;;;;;5069762;28;20015;-72
2023/06/03 00:51:06;;;;;;;;;;;;;;;;;;5071056;28;19932;-72
2023/06/03 00:53:33;;;;;;;;;;;;;;;;;;5073209;28;20015;-72
2023/06/03 00:56:00;;;;;;;;;;;;;;;;;;5075867;28;20023;-72
2023/06/03 00:58:27;;;;;;;;;;;;;;;;;;5075950;28;20019;-73
2023/06/03 01:00:55;;;;;;;;;;;;;;;;;;5074281;28;19967;-73
2023/06/03 01:03:22;;;;;;;;;;;;;;;;;;5074665;28;20398;-72
2023/06/03 01:05:49;;;;;;;;;;;;;;;;;;5080635;28;20346;-72
2023/06/03 01:08:18;;;;;;;;;;;;;;;;;;5090205;28;20355;-72
2023/06/03 01:10:46;;;;;;;;;;;;;;;;;;5096413;28;19924;-72
2023/06/03 01:13:13;;;;;;;;;;;;;;;;;;5075399;28;19929;-72
2023/06/03 01:15:40;;;;;;;;;;;;;;;;;;5072960;28;20067;-72
2023/06/03 01:18:07;;;;;;;;;;;;;;;;;;5074056;28;20221;-72
2023/06/03 01:20:34;;;;;;;;;;;;;;;;;;5084843;28;19976;-74
2023/06/03 01:23:03;;;;;;;;;;;;;;;;;;5087349;28;19928;-73
2023/06/03 01:25:30;;;;;;;;;;;;;;;;;;5086602;28;20019;-72
2023/06/03 01:27:57;;;;;;;;;;;;;;;;;;5073876;28;19983;-72
2023/06/03 01:30:24;;;;;;;;;;;;;;;;;;5075634;28;19925;-72
2023/06/03 01:32:51;;;;;;;;;;;;;;;;;;5075825;28;19928;-72
2023/06/03 01:35:18;;;;;;;;;;;;;;;;;;5062803;28;19972;-73
2023/06/03 01:37:45;;;;;;;;;;;;;;;;;;5071562;28;19932;-74
2023/06/03 01:40:12;;;;;;;;;;;;;;;;;;5075299;28;19932;-72
2023/06/03 01:42:39;;;;;;;;;;;;;;;;;;5074891;28;19924;-73
2023/06/03 01:45:06;;;;;;;;;;;;;;;;;;5075422;28;19976;-74
2023/06/03 01:47:34;;;;;;;;;;;;;;;;;;5073269;28;19985;-75
2023/06/03 01:50:01;;;;;;;;;;;;;;;;;;5076610;28;19924;-74
2023/06/03 01:52:28;;;;;;;;;;;;;;;;;;5079772;28;19932;-74
2023/06/03 01:54:55;;;;;;;;;;;;;;;;;;5072927;28;20017;-74
2023/06/03 01:57:22;;;;;;;;;;;;;;;;;;5073503;28;20353;-74
2023/06/03 01:59:49;;;;;;;;;;;;;;;;;;5074248;28;19925;-74
2023/06/03 02:02:16;;;;;;;;;;;;;;;;;;5073224;28;19999;-74
2023/06/03 02:04:44;;;;;;;;;;;;;;;;;;5071241;28;19975;-74
2023/06/03 02:07:11;;;;;;;;;;;;;;;;;;5072795;28;19982;-74
2023/06/03 02:09:38;;;;;;;;;;;;;;;;;;5073633;28;20011;-73
2023/06/03 02:12:05;;;;;;;;;;;;;;;;;;5085491;28;20355;-74
2023/06/03 02:14:33;;;;;;;;;;;;;;;;;;5075433;28;19924;-73
2023/06/03 02:17:01;;;;;;;;;;;;;;;;;;5071410;28;19931;-73
2023/06/03 02:19:28;;;;;;;;;;;;;;;;;;5074133;28;19933;-73
2023/06/03 02:21:56;;;;;;;;;;;;;;;;;;5081000;28;19937;-75
2023/06/03 02:24:23;;;;;;;;;;;;;;;;;;5079521;28;19954;-74
2023/06/03 02:26:50;;;;;;;;;;;;;;;;;;5071554;28;20406;-75
2023/06/03 02:29:18;;;;;;;;;;;;;;;;;;5074943;28;19925;-75
2023/06/03 02:31:45;;;;;;;;;;;;;;;;;;5086015;28;19924;-74
2023/06/03 02:34:12;;;;;;;;;;;;;;;;;;5072845;28;19924;-74
2023/06/03 02:36:39;;;;;;;;;;;;;;;;;;5079247;28;20460;-74
2023/06/03 02:39:07;;;;;;;;;;;;;;;;;;5076516;28;19924;-74
2023/06/03 02:41:34;;;;;;;;;;;;;;;;;;5082146;28;20389;-74
2023/06/03 02:44:01;;;;;;;;;;;;;;;;;;5078305;28;19986;-74
2023/06/03 02:46:28;;;;;;;;;;;;;;;;;;5073410;28;19924;-75
2023/06/03 02:48:55;;;;;;;;;;;;;;;;;;5072744;28;19978;-72
2023/06/03 02:51:22;;;;;;;;;;;;;;;;;;5088804;28;20378;-72
2023/06/03 02:53:49;;;;;;;;;;;;;;;;;;5089435;28;19963;-73
2023/06/03 02:56:16;;;;;;;;;;;;;;;;;;5076093;28;20276;-73
2023/06/03 02:58:43;;;;;;;;;;;;;;;;;;5094518;28;19932;-73
2023/06/03 03:01:10;;;;;;;;;;;;;;;;;;5077160;28;20008;-74
2023/06/03 03:03:37;;;;;;;;;;;;;;;;;;5085381;28;19972;-74
2023/06/03 03:06:04;;;;;;;;;;;;;;;;;;5083586;28;20011;-74
2023/06/03 03:08:31;;;;;;;;;;;;;;;;;;5073598;28;20379;-74
2023/06/03 03:10:58;;;;;;;;;;;;;;;;;;5074168;28;20374;-74
2023/06/03 03:13:25;;;;;;;;;;;;;;;;;;5078199;28;19928;-74
2023/06/03 03:15:52;;;;;;;;;;;;;;;;;;5078522;28;19928;-74
2023/06/03 03:18:20;;;;;;;;;;;;;;;;;;5073786;28;19928;-72
2023/06/03 03:20:47;;;;;;;;;;;;;;;;;;5072719;28;20318;-74
2023/06/03 03:23:14;;;;;;;;;;;;;;;;;;5092724;28;19931;-74
2023/06/03 03:25:41;;;;;;;;;;;;;;;;;;5078244;28;19925;-74
2023/06/03 03:28:08;;;;;;;;;;;;;;;;;;5061073;28;20637;-74
2023/06/03 03:30:35;;;;;;;;;;;;;;;;;;5072667;28;20014;-76
2023/06/03 03:33:02;;;;;;;;;;;;;;;;;;5072619;28;19974;-74
2023/06/03 03:35:29;;;;;;;;;;;;;;;;;;5072486;28;19925;-74
2023/06/03 03:37:56;;;;;;;;;;;;;;;;;;5072743;28;19960;-73
2023/06/03 03:40:23;;;;;;;;;;;;;;;;;;5073232;28;19960;-74
2023/06/03 03:42:50;;;;;;;;;;;;;;;;;;5071819;28;20015;-73
2023/06/03 03:45:17;;;;;;;;;;;;;;;;;;5071771;28;20010;-73
2023/06/03 03:47:48;;;;;;;;;;;;;;;;;;5073076;28;19925;-74
2023/06/03 03:50:15;;;;;;;;;;;;;;;;;;5073563;28;19935;-74
2023/06/03 03:52:42;;;;;;;;;;;;;;;;;;5073176;28;20055;-73
2023/06/03 03:55:09;;;;;;;;;;;;;;;;;;5065236;28;20027;-74
2023/06/03 03:57:38;;;;;;;;;;;;;;;;;;5075027;28;20563;-73
2023/06/03 04:00:07;;;;;;;;;;;;;;;;;;5084111;28;19947;-73
2023/06/03 04:02:36;;;;;;;;;;;;;;;;;;5083317;28;19924;-73
2023/06/03 04:05:03;;;;;;;;;;;;;;;;;;5073341;28;20017;-73
2023/06/03 04:07:31;;;;;;;;;;;;;;;;;;5084996;28;20018;-74
2023/06/03 04:09:58;;;;;;;;;;;;;;;;;;5088932;28;20264;-74
2023/06/03 04:12:25;;;;;;;;;;;;;;;;;;5077248;28;19931;-75
2023/06/03 04:14:53;;;;;;;;;;;;;;;;;;5073111;28;19924;-74
2023/06/03 04:17:21;;;;;;;;;;;;;;;;;;5092829;28;20022;-74
2023/06/03 04:19:49;;;;;;;;;;;;;;;;;;5074652;28;19924;-74
2023/06/03 04:22:15;;;;;;;;;;;;;;;;;;5074212;28;19943;-74
2023/06/03 04:24:43;;;;;;;;;;;;;;;;;;5093517;28;20010;-74
2023/06/03 04:27:10;;;;;;;;;;;;;;;;;;5080201;28;19930;-74
2023/06/03 04:29:37;;;;;;;;;;;;;;;;;;5070270;28;20027;-74
2023/06/03 04:32:04;;;;;;;;;;;;;;;;;;5071377;28;20371;-74
2023/06/03 04:34:31;;;;;;;;;;;;;;;;;;5073993;28;19940;-74
2023/06/03 04:36:58;;;;;;;;;;;;;;;;;;5071138;28;20450;-74
2023/06/03 04:39:25;;;;;;;;;;;;;;;;;;5055609;28;20363;-72
2023/06/03 04:41:53;;;;;;;;;;;;;;;;;;5075092;28;19932;-74
2023/06/03 04:44:21;;;;;;;;;;;;;;;;;;5081166;28;20015;-73
2023/06/03 04:46:50;;;;;;;;;;;;;;;;;;5089451;28;20355;-73
2023/06/03 04:49:16;;;;;;;;;;;;;;;;;;5073010;28;20470;-74
2023/06/03 04:51:44;;;;;;;;;;;;;;;;;;5070143;28;20263;-73
2023/06/03 04:54:11;;;;;;;;;;;;;;;;;;5071617;28;19993;-73
2023/06/03 04:56:45;;;;;;;;;;;;;;;;;;5083808;28;19924;-78
2023/06/03 04:59:12;;;;;;;;;;;;;;;;;;5074576;28;19931;-74
2023/06/03 05:01:39;;;;;;;;;;;;;;;;;;5076299;28;20011;-73
2023/06/03 05:04:08;;;;;;;;;;;;;;;;;;5092477;28;20286;-73
2023/06/03 05:06:36;;;;;;;;;;;;;;;;;;5076817;28;19962;-73
2023/06/03 05:09:03;;;;;;;;;;;;;;;;;;5085773;28;19935;-74
2023/06/03 05:11:30;;;;;;;;;;;;;;;;;;5078937;28;19978;-73
2023/06/03 05:13:57;;;;;;;;;;;;;;;;;;5083022;28;19925;-73
2023/06/03 05:16:24;;;;;;;;;;;;;;;;;;5069985;28;19924;-73
2023/06/03 05:18:51;;;;;;;;;;;;;;;;;;5069172;28;20007;-73
2023/06/03 05:21:19;;;;;;;;;;;;;;;;;;5068088;28;20015;-74
2023/06/03 05:23:46;;;;;;;;;;;;;;;;;;5088998;28;19927;-73
2023/06/03 05:26:13;;;;;;;;;;;;;;;;;;5086041;28;20011;-73
2023/06/03 05:28:40;;;;;;;;;;;;;;;;;;5074234;28;19928;-73
2023/06/03 05:31:07;;;;;;;;;;;;;;;;;;5070651;28;19964;-74
2023/06/03 05:33:35;;;;;;;;;;;;;;;;;;5072007;28;19974;-73
2023/06/03 05:36:02;;;;;;;;;;;;;;;;;;5071738;28;19924;-74
2023/06/03 05:38:30;;;;;;;;;;;;;;;;;;5072378;28;20024;-73
2023/06/03 05:40:57;;;;;;;;;;;;;;;;;;5073072;28;20306;-73
2023/06/03 05:43:24;;;;;;;;;;;;;;;;;;5072353;28;20007;-73
2023/06/03 05:45:51;;;;;;;;;;;;;;;;;;5073932;28;19982;-73
2023/06/03 05:48:18;;;;;;;;;;;;;;;;;;5073941;28;19954;-73
2023/06/03 05:50:46;;;;;;;;;;;;;;;;;;5074713;28;20024;-73
2023/06/03 05:53:13;;;;;;;;;;;;;;;;;;5073426;28;20011;-72
2023/06/03 05:55:40;;;;;;;;;;;;;;;;;;5087316;28;19946;-72
2023/06/03 05:58:07;;;;;;;;;;;;;;;;;;5092769;28;20379;-73
2023/06/03 06:00:34;;;;;;;;;;;;;;;;;;5094085;28;20018;-73
2023/06/03 06:03:01;;;;;;;;;;;;;;;;;;5072225;28;19924;-73
2023/06/03 06:05:28;;;;;;;;;;;;;;;;;;5074343;28;20620;-73
2023/06/03 06:07:56;;;;;;;;;;;;;;;;;;5082953;28;20085;-74
2023/06/03 06:10:23;;;;;;;;;;;;;;;;;;5073814;28;20272;-74
2023/06/03 06:12:50;;;;;;;;;;;;;;;;;;5075245;28;19978;-74
2023/06/03 06:15:17;;;;;;;;;;;;;;;;;;5081177;28;20062;-74
2023/06/03 06:17:44;;;;;;;;;;;;;;;;;;5075359;28;19968;-73
2023/06/03 06:20:11;;;;;;;;;;;;;;;;;;5071080;28;20388;-74
2023/06/03 06:22:38;;;;;;;;;;;;;;;;;;5072432;28;19970;-74
2023/06/03 06:25:05;;;;;;;;;;;;;;;;;;5067119;28;20015;-73
2023/06/03 06:27:32;;;;;;;;;;;;;;;;;;5072167;28;20442;-74
2023/06/03 06:29:59;;;;;;;;;;;;;;;;;;5070546;28;19931;-75
2023/06/03 06:32:26;;;;;;;;;;;;;;;;;;5073208;28;19931;-75
2023/06/03 06:34:53;;;;;;;;;;;;;;;;;;5072370;28;20345;-75
2023/06/03 06:37:20;;;;;;;;;;;;;;;;;;5080588;28;20007;-75
2023/06/03 06:39:47;;;;;;;;;;;;;;;;;;5081357;28;20016;-75
2023/06/03 06:42:14;;;;;;;;;;;;;;;;;;5079526;28;19924;-75
2023/06/03 06:44:41;;;;;;;;;;;;;;;;;;5082192;28;19968;-77
2023/06/03 06:47:08;;;;;;;;;;;;;;;;;;5069961;28;20000;-75
2023/06/03 06:49:35;;;;;;;;;;;;;;;;;;5072437;28;20365;-74
2023/06/03 06:52:02;;;;;;;;;;;;;;;;;;5073051;28;20378;-75
2023/06/03 06:54:29;;;;;;;;;;;;;;;;;;5072560;28;20030;-74
2023/06/03 06:56:56;;;;;;;;;;;;;;;;;;5070377;28;20023;-75
2023/06/03 06:59:23;;;;;;;;;;;;;;;;;;5058903;28;19936;-74
2023/06/03 07:01:50;;;;;;;;;;;;;;;;;;5071565;28;20446;-74
2023/06/03 07:04:17;;;;;;;;;;;;;;;;;;5071827;28;20035;-74
2023/06/03 07:06:44;;;;;;;;;;;;;;;;;;5070922;28;20015;-78
2023/06/03 07:09:11;;;;;;;;;;;;;;;;;;5073329;28;20015;-82
2023/06/03 07:11:38;;;;;;;;;;;;;;;;;;5072915;28;19925;-82
2023/06/03 07:14:05;;;;;;;;;;;;;;;;;;5072798;28;19947;-80
2023/06/03 07:16:32;;;;;;;;;;;;;;;;;;5073267;28;19978;-76
2023/06/03 07:18:59;;;;;;;;;;;;;;;;;;5072245;28;19979;-76
2023/06/03 07:21:26;;;;;;;;;;;;;;;;;;5067986;28;19934;-77
2023/06/03 07:23:53;;;;;;;;;;;;;;;;;;5070874;28;19928;-76
2023/06/03 07:26:20;;;;;;;;;;;;;;;;;;5074709;28;20007;-77
2023/06/03 07:28:47;;;;;;;;;;;;;;;;;;5070159;28;19924;-78
2023/06/03 07:31:14;;;;;;;;;;;;;;;;;;5069330;28;20027;-78
2023/06/03 07:33:41;;;;;;;;;;;;;;;;;;5080320;28;19973;-79
2023/06/03 07:36:08;;;;;;;;;;;;;;;;;;5069783;28;20011;-79
2023/06/03 07:38:35;;;;;;;;;;;;;;;;;;5067654;28;20438;-77
2023/06/03 07:41:02;;;;;;;;;;;;;;;;;;5068554;28;20042;-76
2023/06/03 07:43:29;;;;;;;;;;;;;;;;;;5078037;28;19970;-77
2023/06/03 07:45:56;;;;;;;;;;;;;;;;;;5067338;28;19932;-77
2023/06/03 07:48:23;;;;;;;;;;;;;;;;;;5073773;28;20028;-77
2023/06/03 07:50:50;;;;;;;;;;;;;;;;;;5071398;28;19924;-77
2023/06/03 07:53:17;;;;;;;;;;;;;;;;;;5069530;28;20028;-77
2023/06/03 07:55:44;;;;;;;;;;;;;;;;;;5081642;28;19971;-78
2023/06/03 07:58:11;;;;;;;;;;;;;;;;;;5072403;28;20007;-77
2023/06/03 08:00:38;;;;;;;;;;;;;;;;;;5062710;28;19928;-78
2023/06/03 08:03:05;;;;;;;;;;;;;;;;;;5064286;28;19936;-75
2023/06/03 08:05:32;;;;;;;;;;;;;;;;;;5065282;28;19924;-76
2023/06/03 08:07:59;;;;;;;;;;;;;;;;;;5064835;28;19924;-75
2023/06/03 08:10:27;;;;;;;;;;;;;;;;;;5070897;28;20053;-76
2023/06/03 08:12:54;;;;;;;;;;;;;;;;;;5068423;28;20291;-78
2023/06/03 08:15:21;;;;;;;;;;;;;;;;;;5086554;22;19940;-76
2023/06/03 08:17:50;;;;;;;;;;;;;;;;;;5090532;28;19978;-80
2023/06/03 08:20:17;;;;;;;;;;;;;;;;;;5085849;28;19969;-79
2023/06/03 08:22:44;;;;;;;;;;;;;;;;;;5084705;28;23918;-77
2023/06/03 08:25:11;;;;;;;;;;;;;;;;;;5079736;28;20013;-77
2023/06/03 08:27:38;;;;;;;;;;;;;;;;;;5077832;28;20014;-77
2023/06/03 08:30:05;;;;;;;;;;;;;;;;;;5086735;28;20043;-75
2023/06/03 08:32:32;;;;;;;;;;;;;;;;;;5082644;28;20015;-76
2023/06/03 08:34:59;;;;;;;;;;;;;;;;;;5077869;28;19925;-75
2023/06/03 08:37:26;;;;;;;;;;;;;;;;;;5080380;28;19924;-74
2023/06/03 08:39:53;;;;;;;;;;;;;;;;;;5083493;28;19933;-76
2023/06/03 08:42:20;;;;;;;;;;;;;;;;;;5084297;28;19935;-75
2023/06/03 08:44:47;;;;;;;;;;;;;;;;;;5077583;28;19932;-77
2023/06/03 08:47:15;;;;;;;;;;;;;;;;;;5084431;28;20060;-74
2023/06/03 08:49:42;;;;;;;;;;;;;;;;;;5080171;28;20560;-75
2023/06/03 08:52:10;;;;;;;;;;;;;;;;;;5087770;28;20025;-74
2023/06/03 08:54:37;;;;;;;;;;;;;;;;;;5093988;28;19924;-75
2023/06/03 08:57:04;;;;;;;;;;;;;;;;;;5078170;28;20015;-76
2023/06/03 08:59:31;;;;;;;;;;;;;;;;;;5080999;28;20360;-79
2023/06/03 09:01:58;;;;;;;;;;;;;;;;;;5079977;28;19931;-76
2023/06/03 09:04:25;;;;;;;;;;;;;;;;;;5088164;28;20473;-78
2023/06/03 09:06:53;;;;;;;;;;;;;;;;;;5091398;28;19971;-78
2023/06/03 09:09:20;;;;;;;;;;;;;;;;;;5080393;28;20415;-79
2023/06/03 09:11:47;;;;;;;;;;;;;;;;;;5081893;28;20015;-79
2023/06/03 09:14:14;;;;;;;;;;;;;;;;;;5088220;28;19931;-76
2023/06/03 09:16:41;;;;;;;;;;;;;;;;;;5098786;28;20336;-77
2023/06/03 09:19:08;;;;;;;;;;;;;;;;;;5079704;28;19985;-78
2023/06/03 09:21:37;;;;;;;;;;;;;;;;;;5081898;28;20379;-77
2023/06/03 09:24:04;;;;;;;;;;;;;;;;;;5078961;28;19947;-80
2023/06/03 09:26:31;;;;;;;;;;;;;;;;;;5089161;28;19946;-79
2023/06/03 09:28:58;;;;;;;;;;;;;;;;;;5085918;28;20043;-78
2023/06/03 09:31:25;;;;;;;;;;;;;;;;;;5082983;28;20399;-77
2023/06/03 09:33:52;;;;;;;;;;;;;;;;;;5076994;28;19925;-76
2023/06/03 09:36:19;;;;;;;;;;;;;;;;;;5081579;28;20023;-75
2023/06/03 09:38:47;;;;;;;;;;;;;;;;;;5081327;28;19923;-76
2023/06/03 09:41:14;;;;;;;;;;;;;;;;;;5087124;28;20287;-77
2023/06/03 09:43:41;;;;;;;;;;;;;;;;;;5084816;28;20351;-77
2023/06/03 09:46:08;;;;;;;;;;;;;;;;;;5079054;28;19967;-78
2023/06/03 09:48:35;;;;;;;;;;;;;;;;;;5083502;28;20023;-76
2023/06/03 09:51:02;;;;;;;;;;;;;;;;;;5080604;28;19924;-75
2023/06/03 09:53:30;;;;;;;;;;;;;;;;;;5076706;28;19978;-77
2023/06/03 09:55:57;;;;;;;;;;;;;;;;;;5089490;28;19978;-76
2023/06/03 09:58:24;;;;;;;;;;;;;;;;;;5085320;28;20013;-76
2023/06/03 10:00:51;;;;;;;;;;;;;;;;;;5094644;28;20352;-76
2023/06/03 10:03:18;;;;;;;;;;;;;;;;;;5091862;28;20027;-77
2023/06/03 10:05:45;;;;;;;;;;;;;;;;;;5079003;28;20372;-76
2023/06/03 10:08:12;;;;;;;;;;;;;;;;;;5086007;28;20028;-76
2023/06/03 10:10:39;;;;;;;;;;;;;;;;;;5082530;28;20331;-73
2023/06/03 10:13:06;;;;;;;;;;;;;;;;;;5084487;28;20022;-79
2023/06/03 10:15:33;;;;;;;;;;;;;;;;;;5088747;22;20098;-74
2023/06/03 10:18:00;;;;;;;;;;;;;;;;;;5085336;28;20461;-72
2023/06/03 10:20:27;;;;;;;;;;;;;;;;;;5090598;28;19994;-75
2023/06/03 10:22:54;;;;;;;;;;;;;;;;;;5085585;28;20022;-72
2023/06/03 10:25:21;;;;;;;;;;;;;;;;;;5085673;28;19938;-78
2023/06/03 10:27:48;;;;;;;;;;;;;;;;;;5079202;28;19967;-77
2023/06/03 10:30:15;;;;;;;;;;;;;;;;;;5086125;28;20015;-75
2023/06/03 10:32:42;;;;;;;;;;;;;;;;;;5080885;28;19975;-79
2023/06/03 10:35:10;;;;;;;;;;;;;;;;;;5092780;28;20007;-83
2023/06/03 10:37:37;;;;;;;;;;;;;;;;;;5089381;28;19924;-76
2023/06/03 10:40:05;;;;;;;;;;;;;;;;;;5089785;28;20023;-77
2023/06/03 10:42:32;;;;;;;;;;;;;;;;;;5077923;28;19939;-79
2023/06/03 10:44:59;;;;;;;;;;;;;;;;;;5084079;28;19950;-78
2023/06/03 10:47:26;;;;;;;;;;;;;;;;;;5090237;28;19931;-74
2023/06/03 10:49:53;;;;;;;;;;;;;;;;;;5073849;28;20006;-75
2023/06/03 10:52:20;;;;;;;;;;;;;;;;;;5095879;28;20014;-77
2023/06/03 10:54:47;;;;;;;;;;;;;;;;;;5089687;28;19939;-77
2023/06/03 10:57:14;;;;;;;;;;;;;;;;;;5107465;28;19930;-79
2023/06/03 10:59:42;;;;;;;;;;;;;;;;;;5096175;28;20328;-78
2023/06/03 11:02:09;;;;;;;;;;;;;;;;;;5095781;28;19932;-81
2023/06/03 11:04:36;;;;;;;;;;;;;;;;;;5082878;28;19924;-82
2023/06/03 11:07:03;;;;;;;;;;;;;;;;;;5094236;28;19971;-75
2023/06/03 11:09:30;;;;;;;;;;;;;;;;;;5091161;28;20398;-75
2023/06/03 11:12:03;;;;;;;;;;;;;;;;;;5088465;28;20354;-75
2023/06/03 11:14:30;;;;;;;;;;;;;;;;;;5108258;28;19931;-75
2023/06/03 11:16:57;;;;;;;;;;;;;;;;;;5105464;28;19931;-79
2023/06/03 11:19:24;;;;;;;;;;;;;;;;;;5087239;28;20007;-75
2023/06/03 11:21:51;;;;;;;;;;;;;;;;;;5095672;28;19968;-76
2023/06/03 11:24:18;;;;;;;;;;;;;;;;;;5088337;28;20015;-77
2023/06/03 11:26:45;;;;;;;;;;;;;;;;;;5077200;28;19930;-76
2023/06/03 11:29:12;;;;;;;;;;;;;;;;;;5084589;28;19930;-76
2023/06/03 11:31:38;;;;;;;;;;;;;;;;;;5080058;28;20010;-76
2023/06/03 11:34:05;;;;;;;;;;;;;;;;;;5081505;28;20034;-76
2023/06/03 11:36:32;;;;;;;;;;;;;;;;;;5086352;28;19985;-76
2023/06/03 11:38:59;;;;;;;;;;;;;;;;;;5076680;28;19975;-76
2023/06/03 11:41:26;;;;;;;;;;;;;;;;;;5082576;28;19938;-76
2023/06/03 11:43:53;;;;;;;;;;;;;;;;;;5086293;28;19931;-76
2023/06/03 11:46:20;;;;;;;;;;;;;;;;;;5083387;28;20403;-76
2023/06/03 11:48:47;;;;;;;;;;;;;;;;;;5088566;28;20003;-80
2023/06/03 11:51:14;;;;;;;;;;;;;;;;;;5082646;28;20007;-76
2023/06/03 11:53:41;;;;;;;;;;;;;;;;;;5087147;28;19924;-76
2023/06/03 11:56:09;;;;;;;;;;;;;;;;;;5082382;28;19932;-76
2023/06/03 11:58:36;;;;;;;;;;;;;;;;;;5090558;28;19933;-76
2023/06/03 12:01:03;;;;;;;;;;;;;;;;;;5089543;28;19924;-80
2023/06/03 12:03:30;;;;;;;;;;;;;;;;;;5089129;28;19963;-79
2023/06/03 12:05:57;;;;;;;;;;;;;;;;;;5098970;28;20014;-78
2023/06/03 12:08:24;;;;;;;;;;;;;;;;;;5082033;28;20030;-79
2023/06/03 12:10:52;;;;;;;;;;;;;;;;;;5080353;28;20016;-77
2023/06/03 12:13:19;;;;;;;;;;;;;;;;;;5088446;28;19970;-77
2023/06/03 12:15:47;;;;;;;;;;;;;;;;;;5081202;28;20413;-79
2023/06/03 12:18:14;;;;;;;;;;;;;;;;;;5074512;28;19939;-78
2023/06/03 12:20:41;;;;;;;;;;;;;;;;;;5085871;28;20409;-78
2023/06/03 12:23:08;;;;;;;;;;;;;;;;;;5087147;28;19928;-78
2023/06/03 12:25:35;;;;;;;;;;;;;;;;;;5089534;28;19977;-76
2023/06/03 12:28:02;;;;;;;;;;;;;;;;;;5091459;28;19932;-77
2023/06/03 12:30:30;;;;;;;;;;;;;;;;;;5085632;28;19925;-78
2023/06/03 12:32:58;;;;;;;;;;;;;;;;;;5089652;28;19928;-77
2023/06/03 12:35:26;;;;;;;;;;;;;;;;;;5088791;28;19946;-79
2023/06/03 12:37:53;;;;;;;;;;;;;;;;;;5087359;28;19928;-79
2023/06/03 12:40:20;;;;;;;;;;;;;;;;;;5085871;28;20314;-80
2023/06/03 12:42:47;;;;;;;;;;;;;;;;;;5086925;28;19924;-80
2023/06/03 12:45:14;;;;;;;;;;;;;;;;;;5085411;28;20370;-78
2023/06/03 12:47:41;;;;;;;;;;;;;;;;;;5082981;28;19925;-77
2023/06/03 12:50:10;;;;;;;;;;;;;;;;;;5096372;28;19931;-82
2023/06/03 12:52:38;;;;;;;;;;;;;;;;;;5096885;28;19928;-82
2023/06/03 12:55:06;;;;;;;;;;;;;;;;;;5105076;28;19954;-81
2023/06/03 12:57:33;;;;;;;;;;;;;;;;;;5097687;28;19924;-83
2023/06/03 13:00:00;;;;;;;;;;;;;;;;;;5095276;28;20001;-74
2023/06/03 13:02:28;;;;;;;;;;;;;;;;;;5076294;28;20011;-74
2023/06/03 13:04:57;;;;;;;;;;;;;;;;;;5089565;22;19930;-77
2023/06/03 13:07:25;;;;;;;;;;;;;;;;;;5066978;28;19967;-73
2023/06/03 13:09:54;;;;;;;;;;;;;;;;;;5069061;28;20014;-73
2023/06/03 13:12:21;;;;;;;;;;;;;;;;;;5067934;28;19968;-76
2023/06/03 13:14:48;;;;;;;;;;;;;;;;;;5075637;28;19948;-74
2023/06/03 13:17:15;;;;;;;;;;;;;;;;;;5080961;28;20445;-74
2023/06/03 13:19:42;;;;;;;;;;;;;;;;;;5071124;28;19948;-74
2023/06/03 13:22:09;;;;;;;;;;;;;;;;;;5077520;28;19924;-74
2023/06/03 13:24:36;;;;;;;;;;;;;;;;;;5064256;28;20467;-78
2023/06/03 13:27:03;;;;;;;;;;;;;;;;;;5068883;28;20036;-79
2023/06/03 13:29:30;;;;;;;;;;;;;;;;;;5068110;28;19946;-78
2023/06/03 13:31:57;;;;;;;;;;;;;;;;;;5072870;28;20399;-78
2023/06/03 13:34:24;;;;;;;;;;;;;;;;;;5073229;28;19958;-79
2023/06/03 13:36:51;;;;;;;;;;;;;;;;;;5070274;28;20030;-78
2023/06/03 13:39:21;;;;;;;;;;;;;;;;;;5068988;28;19978;-82
2023/06/03 13:41:49;;;;;;;;;;;;;;;;;;5077410;28;19924;-81
2023/06/03 13:44:16;;;;;;;;;;;;;;;;;;5071293;28;20005;-78
2023/06/03 13:46:43;;;;;;;;;;;;;;;;;;5065674;28;19970;-80
2023/06/03 13:49:10;;;;;;;;;;;;;;;;;;5063307;28;19947;-83
2023/06/03 13:51:37;;;;;;;;;;;;;;;;;;5066850;28;20110;-80
2023/06/03 13:54:04;;;;;;;;;;;;;;;;;;5080142;28;19924;-78
2023/06/03 13:56:31;;;;;;;;;;;;;;;;;;5091332;28;19954;-76
2023/06/03 13:58:58;;;;;;;;;;;;;;;;;;5072613;28;19982;-73
2023/06/03 14:01:26;;;;;;;;;;;;;;;;;;5066636;28;19924;-74
2023/06/03 14:03:53;;;;;;;;;;;;;;;;;;5082546;28;19933;-77
2023/06/03 14:06:21;;;;;;;;;;;;;;;;;;5075761;28;20397;-77
2023/06/03 14:08:48;;;;;;;;;;;;;;;;;;5071817;28;19925;-78
2023/06/03 14:11:15;;;;;;;;;;;;;;;;;;5078910;28;19943;-78
2023/06/03 14:13:42;;;;;;;;;;;;;;;;;;5078013;28;19925;-77
2023/06/03 14:16:09;;;;;;;;;;;;;;;;;;5068748;28;19943;-77
2023/06/03 14:18:36;;;;;;;;;;;;;;;;;;5077827;28;19925;-77
2023/06/03 14:21:03;;;;;;;;;;;;;;;;;;5072164;28;19978;-77
2023/06/03 14:23:30;;;;;;;;;;;;;;;;;;5079715;28;20295;-77
2023/06/03 14:25:57;;;;;;;;;;;;;;;;;;5079690;28;20019;-77
2023/06/03 14:28:24;;;;;;;;;;;;;;;;;;5071274;28;19975;-77
2023/06/03 14:30:51;;;;;;;;;;;;;;;;;;5066644;28;20016;-77
2023/06/03 14:33:20;;;;;;;;;;;;;;;;;;5067427;28;19925;-77
2023/06/03 14:35:47;;;;;;;;;;;;;;;;;;5075555;28;20031;-77
2023/06/03 14:38:15;;;;;;;;;;;;;;;;;;5074465;28;19976;-77
2023/06/03 14:40:42;;;;;;;;;;;;;;;;;;5075934;28;19924;-77
2023/06/03 14:43:09;;;;;;;;;;;;;;;;;;5074058;28;19967;-77
2023/06/03 14:45:36;;;;;;;;;;;;;;;;;;5074393;28;19955;-79
2023/06/03 14:48:03;;;;;;;;;;;;;;;;;;5077912;28;20019;-78
2023/06/03 14:50:32;;;;;;;;;;;;;;;;;;5076070;28;19924;-77
2023/06/03 14:52:59;;;;;;;;;;;;;;;;;;5064612;28;20467;-79
2023/06/03 14:55:26;;;;;;;;;;;;;;;;;;5067224;28;19924;-81
2023/06/03 14:57:53;;;;;;;;;;;;;;;;;;5086727;28;20382;-81
2023/06/03 15:00:21;;;;;;;;;;;;;;;;;;5075873;28;20453;-83
2023/06/03 15:02:48;;;;;;;;;;;;;;;;;;5078925;28;19994;-81
2023/06/03 15:05:15;;;;;;;;;;;;;;;;;;5074682;28;20019;-82
2023/06/03 15:07:42;;;;;;;;;;;;;;;;;;5074740;28;19924;-82
2023/06/03 15:10:11;;;;;;;;;;;;;;;;;;5075587;28;20011;-81
2023/06/03 15:12:38;;;;;;;;;;;;;;;;;;5073810;28;19924;-81
2023/06/03 15:15:05;;;;;;;;;;;;;;;;;;5063670;28;19976;-82
2023/06/03 15:17:32;;;;;;;;;;;;;;;;;;5072972;28;20438;-80
2023/06/03 15:19:59;;;;;;;;;;;;;;;;;;5075856;28;19924;-81
2023/06/03 15:22:26;;;;;;;;;;;;;;;;;;5066902;28;19955;-81
2023/06/03 15:24:53;;;;;;;;;;;;;;;;;;5068776;28;19924;-80
2023/06/03 15:27:20;;;;;;;;;;;;;;;;;;5074208;28;20015;-81
2023/06/03 15:29:47;;;;;;;;;;;;;;;;;;5063858;28;19990;-81
2023/06/03 15:32:14;;;;;;;;;;;;;;;;;;5070541;28;20373;-82
2023/06/03 15:34:42;;;;;;;;;;;;;;;;;;5075633;28;20033;-82
2023/06/03 15:37:09;;;;;;;;;;;;;;;;;;5071938;28;20368;-80
2023/06/03 15:39:36;;;;;;;;;;;;;;;;;;5074385;28;19991;-80
2023/06/03 15:42:03;;;;;;;;;;;;;;;;;;5072378;28;19925;-80
2023/06/03 15:44:30;;;;;;;;;;;;;;;;;;5072740;28;19932;-80
2023/06/03 15:46:57;;;;;;;;;;;;;;;;;;5084290;28;20091;-80
2023/06/03 15:49:26;;;;;;;;;;;;;;;;;;5068970;28;20287;-73
2023/06/03 15:51:53;;;;;;;;;;;;;;;;;;5066705;28;19925;-81
2023/06/03 15:54:20;;;;;;;;;;;;;;;;;;5067883;28;20011;-81
2023/06/03 15:56:49;;;;;;;;;;;;;;;;;;5071234;28;19940;-78
2023/06/03 15:59:16;;;;;;;;;;;;;;;;;;5070865;28;20396;-76
2023/06/03 16:01:43;;;;;;;;;;;;;;;;;;5067167;28;19932;-76
2023/06/03 16:04:10;;;;;;;;;;;;;;;;;;5069204;28;20058;-77
2023/06/03 16:06:38;;;;;;;;;;;;;;;;;;5068453;28;19924;-76
2023/06/03 16:09:06;;;;;;;;;;;;;;;;;;5099606;22;20030;-76
2023/06/03 16:11:33;;;;;;;;;;;;;;;;;;5086175;28;19924;-77
2023/06/03 16:14:00;;;;;;;;;;;;;;;;;;5087096;28;19932;-77
2023/06/03 16:16:27;;;;;;;;;;;;;;;;;;5084533;28;19928;-77
2023/06/03 16:18:54;;;;;;;;;;;;;;;;;;5088998;28;19954;-77
2023/06/03 16:21:21;;;;;;;;;;;;;;;;;;5095794;28;19976;-77
2023/06/03 16:23:48;;;;;;;;;;;;;;;;;;5092730;28;19924;-77
2023/06/03 16:26:15;;;;;;;;;;;;;;;;;;5099484;22;19929;-77
2023/06/03 16:28:42;;;;;;;;;;;;;;;;;;5032311;28;19925;-77
2023/06/03 16:31:09;;;;;;;;;;;;;;;;;;5052726;28;19964;-77
2023/06/03 16:33:36;;;;;;;;;;;;;;;;;;5068948;28;20371;-77
2023/06/03 16:36:03;;;;;;;;;;;;;;;;;;5066522;28;20114;-75
2023/06/03 16:38:31;;;;;;;;;;;;;;;;;;5059127;28;19924;-77
2023/06/03 16:40:58;;;;;;;;;;;;;;;;;;5053401;28;20032;-77
2023/06/03 16:43:25;;;;;;;;;;;;;;;;;;5063603;28;20007;-76
2023/06/03 16:45:52;;;;;;;;;;;;;;;;;;5060845;28;19925;-79